weather.gov     
National Weather Service

Terminal Aerodrome Forecast
NWS Homepage
This page is being discontinued on March 12, 2014.
The same data is available at this site. Please update your bookmarks.
Thank you, and we apologize for the inconvenience.
Please send an email to SR-SRH.Webmaster@noaa.gov with any concerns.


Current Version
Previous Version:    01  02  03  04  05  06  07  08  09  10  11  12  13  14  15  16  17  18  19  20  21  22  23  24  25  26  27  
[Printable]
582
FTUS43 KGLD 310529
TAFMCK
TAF
KMCK 310529Z 3106/0106 17008KT P6SM VCSH OVC008
     FM310900 VRB05KT 5SM BR VCSH OVC006
     FM311200 VRB05KT 1SM BR OVC006
     FM311600 10005KT 3SM -RA BR OVC008
     FM312100 05008KT 5SM -RA BR OVC010
     FM010000 03009KT 4SM -SN OVC008=


582
FTUS43 KGLD 310529
TAFMCK
TAF
KMCK 310529Z 3106/0106 17008KT P6SM VCSH OVC008
     FM310900 VRB05KT 5SM BR VCSH OVC006
     FM311200 VRB05KT 1SM BR OVC006
     FM311600 10005KT 3SM -RA BR OVC008
     FM312100 05008KT 5SM -RA BR OVC010
     FM010000 03009KT 4SM -SN OVC008=




U.S. Dept. of Commerce
NOAA National Weather Service
1325 East West Highway
Silver Spring, MD 20910
E-mail: w-nws.webmaster@noaa.gov
Page last modified: May 16, 2007
NATIONAL WEATHER SERVICE: for Safety, for Work, for Fun - FOR LIFE